Time;durP1;ratioP1;P1;durP2;ratioP2;P2;SDS_P1;SDS_P2;PMS_P1;PMS_P2;Temp;Humidity;BMP_temperature;BMP_pressure;BME280_temperature;BME280_humidity;BME280_pressure;Samples;Min_cycle;Max_cycle;Signal;HPM_P1;HPM_P2
2022/09/13 00:00:15;;;;;;;1.30;1.20;;;20.00;39.40;;;;;;5017717;28;21830;-70
2022/09/13 00:02:41;;;;;;;1.40;1.20;;;20.00;38.50;;;;;;5014985;28;20645;-70
2022/09/13 00:05:07;;;;;;;1.40;1.20;;;20.00;38.80;;;;;;5016607;28;20192;-70
2022/09/13 00:07:32;;;;;;;1.40;1.20;;;19.90;40.20;;;;;;5016219;28;20234;-70
2022/09/13 00:09:58;;;;;;;1.30;1.13;;;19.90;40.60;;;;;;5017552;28;20835;-70
2022/09/13 00:12:24;;;;;;;1.30;1.13;;;19.90;40.20;;;;;;5030300;28;20321;-70
2022/09/13 00:14:49;;;;;;;1.30;1.07;;;19.90;40.50;;;;;;5017517;28;20649;-70
2022/09/13 00:17:15;;;;;;;1.40;1.30;;;19.80;40.80;;;;;;5015735;28;20201;-69
2022/09/13 00:19:41;;;;;;;1.40;1.20;;;19.80;40.50;;;;;;5019898;28;20225;-70
2022/09/13 00:22:06;;;;;;;1.30;1.17;;;19.80;40.90;;;;;;5013647;28;20323;-70
2022/09/13 00:24:33;;;;;;;1.30;1.10;;;19.70;40.20;;;;;;5017168;28;20692;-70
2022/09/13 00:26:59;;;;;;;1.40;1.20;;;19.50;40.70;;;;;;5017950;28;20688;-70
2022/09/13 00:29:26;;;;;;;1.40;1.20;;;19.40;40.50;;;;;;5011490;28;20472;-70
2022/09/13 00:31:51;;;;;;;1.33;1.20;;;19.40;41.10;;;;;;5015793;28;20776;-70
2022/09/13 00:34:17;;;;;;;1.30;1.10;;;19.40;40.90;;;;;;5017727;28;20432;-70
2022/09/13 00:36:42;;;;;;;1.30;1.10;;;19.30;41.70;;;;;;5019723;28;20191;-70
2022/09/13 00:39:09;;;;;;;1.40;1.20;;;19.50;41.20;;;;;;5020581;28;20216;-70
2022/09/13 00:41:35;;;;;;;1.40;1.20;;;19.40;41.10;;;;;;5019473;28;20209;-71
2022/09/13 00:44:02;;;;;;;1.30;1.20;;;19.40;41.50;;;;;;5014742;28;20503;-70
2022/09/13 00:46:51;;;;;;;1.30;1.20;;;19.40;41.50;;;;;;5022850;28;20483;-70
2022/09/13 00:49:27;;;;;;;1.30;1.20;;;19.40;41.60;;;;;;5018970;28;20467;-70
2022/09/13 00:51:57;;;;;;;1.40;1.20;;;19.20;41.60;;;;;;5018001;28;20478;-70
2022/09/13 00:54:28;;;;;;;1.40;1.20;;;19.20;41.50;;;;;;5018200;28;20804;-70
2022/09/13 00:57:00;;;;;;;1.37;1.20;;;19.30;41.80;;;;;;5020453;28;20444;-70
2022/09/13 00:59:39;;;;;;;1.50;1.37;;;19.20;42.10;;;;;;5020395;28;20475;-70
2022/09/13 01:02:05;;;;;;;1.83;1.30;;;19.10;41.50;;;;;;5017402;28;20441;-70
2022/09/13 01:04:33;;;;;;;1.40;1.10;;;19.00;41.90;;;;;;5015837;28;20531;-70
2022/09/13 01:07:05;;;;;;;1.40;1.10;;;19.10;42.00;;;;;;5018988;28;20466;-70
2022/09/13 01:09:32;;;;;;;1.40;1.17;;;19.00;40.70;;;;;;5022272;28;20490;-70
2022/09/13 01:12:07;;;;;;;1.47;1.30;;;18.90;42.50;;;;;;5021212;28;20430;-70
2022/09/13 01:14:33;;;;;;;1.30;1.10;;;18.90;43.00;;;;;;5022583;28;20439;-70
2022/09/13 01:16:59;;;;;;;1.40;1.10;;;18.90;43.20;;;;;;5013999;28;20525;-70
2022/09/13 01:19:26;;;;;;;1.40;1.17;;;18.80;43.10;;;;;;5017494;28;20546;-70
2022/09/13 01:21:55;;;;;;;1.40;1.20;;;18.60;43.90;;;;;;5020155;28;20443;-70
2022/09/13 01:24:47;;;;;;;1.40;1.20;;;18.60;43.20;;;;;;5014185;28;20463;-70
2022/09/13 01:27:48;;;;;;;1.40;1.20;;;18.70;43.60;;;;;;5017414;28;20478;-70
2022/09/13 01:30:22;;;;;;;1.40;1.10;;;18.70;43.50;;;;;;4996278;28;20468;-70
2022/09/13 01:33:21;;;;;;;1.40;1.10;;;18.60;43.90;;;;;;5021909;28;20420;-70
2022/09/13 01:36:04;;;;;;;1.40;1.20;;;18.60;44.40;;;;;;5018008;28;20539;-70
2022/09/13 01:38:41;;;;;;;1.50;1.30;;;18.70;44.10;;;;;;5020598;28;20484;-70
2022/09/13 01:41:44;;;;;;;1.40;1.20;;;18.80;43.80;;;;;;5019815;28;20460;-70
2022/09/13 01:44:15;;;;;;;1.40;1.20;;;18.80;43.40;;;;;;5019227;28;20422;-70
2022/09/13 01:46:53;;;;;;;1.43;1.20;;;18.70;43.60;;;;;;5014938;28;20456;-70
2022/09/13 01:49:22;;;;;;;1.40;1.20;;;18.60;44.00;;;;;;5018178;28;20454;-70
2022/09/13 01:52:07;;;;;;;1.40;1.10;;;18.70;44.30;;;;;;5020736;28;20938;-70
2022/09/13 01:54:32;;;;;;;1.50;1.23;;;18.70;43.40;;;;;;5019925;28;20856;-70
2022/09/13 01:57:11;;;;;;;1.40;1.10;;;18.60;44.00;;;;;;5016086;28;20475;-69
2022/09/13 01:59:56;;;;;;;1.40;1.20;;;18.50;43.50;;;;;;5021871;28;20200;-70
2022/09/13 02:02:28;;;;;;;1.40;1.20;;;18.50;44.00;;;;;;5017548;28;20404;-70
2022/09/13 02:05:02;;;;;;;1.40;1.20;;;18.40;44.10;;;;;;5021099;28;20438;-70
2022/09/13 02:07:37;;;;;;;1.50;1.30;;;18.30;44.60;;;;;;5012714;28;20468;-69
2022/09/13 02:10:20;;;;;;;1.50;1.20;;;18.20;44.60;;;;;;5017490;28;20485;-70
2022/09/13 02:12:48;;;;;;;1.40;1.10;;;18.20;44.80;;;;;;5018583;28;20408;-70
2022/09/13 02:15:19;;;;;;;1.40;1.10;;;18.20;44.60;;;;;;5017875;28;20438;-70
2022/09/13 02:17:54;;;;;;;1.30;1.10;;;18.10;45.50;;;;;;5013382;28;20440;-69
2022/09/13 02:20:33;;;;;;;1.40;1.20;;;18.10;45.70;;;;;;5018247;28;20458;-70
2022/09/13 02:23:04;;;;;;;1.33;1.10;;;18.20;45.40;;;;;;5019563;28;20589;-70
2022/09/13 02:25:33;;;;;;;1.40;1.20;;;18.00;46.00;;;;;;5019446;28;20472;-70
2022/09/13 02:28:04;;;;;;;1.40;1.20;;;18.00;45.80;;;;;;5014904;28;20471;-70
2022/09/13 02:30:33;;;;;;;1.40;1.10;;;18.00;45.50;;;;;;5016641;28;20555;-70
2022/09/13 02:33:14;;;;;;;1.40;1.20;;;18.00;45.20;;;;;;5020055;28;20459;-69
2022/09/13 02:35:48;;;;;;;1.40;1.10;;;18.00;45.80;;;;;;5016437;28;20527;-70
2022/09/13 02:38:25;;;;;;;1.40;1.10;;;17.90;45.40;;;;;;5016658;28;20771;-70
2022/09/13 02:41:02;;;;;;;1.50;1.30;;;17.80;45.50;;;;;;5011118;28;20459;-70
2022/09/13 02:43:38;;;;;;;1.40;1.20;;;17.80;46.50;;;;;;5000441;28;20954;-70
2022/09/13 02:46:28;;;;;;;1.40;1.20;;;17.90;46.00;;;;;;5011434;28;20464;-70
2022/09/13 02:49:12;;;;;;;1.40;1.27;;;18.00;44.80;;;;;;5012396;28;20431;-70
2022/09/13 02:51:52;;;;;;;1.40;1.20;;;18.00;44.60;;;;;;5011511;28;20428;-69
2022/09/13 02:54:37;;;;;;;1.40;1.10;;;18.00;44.50;;;;;;5011731;28;20434;-70
2022/09/13 02:57:20;;;;;;;1.40;1.20;;;18.00;44.10;;;;;;5011484;28;20455;-70
2022/09/13 02:59:48;;;;;;;1.40;1.20;;;17.90;45.10;;;;;;5004203;28;20564;-70
2022/09/13 03:02:18;;;;;;;1.33;1.10;;;17.90;45.30;;;;;;5008155;28;20803;-70
2022/09/13 03:04:43;;;;;;;1.30;1.10;;;17.90;45.50;;;;;;5011950;28;20447;-69
2022/09/13 03:07:13;;;;;;;1.40;1.20;;;17.90;45.30;;;;;;5011293;28;20467;-70
2022/09/13 03:09:53;;;;;;;1.40;1.10;;;17.80;45.60;;;;;;5011562;28;20350;-70
2022/09/13 03:12:54;;;;;;;1.53;1.20;;;17.90;44.90;;;;;;5009576;28;20427;-70
2022/09/13 03:15:56;;;;;;;1.40;1.10;;;18.00;44.40;;;;;;5008868;28;20429;-70
2022/09/13 03:18:22;;;;;;;1.40;1.13;;;17.80;44.20;;;;;;4987819;28;20543;-69
2022/09/13 03:21:10;;;;;;;1.40;1.20;;;17.90;44.60;;;;;;5010847;28;20826;-70
2022/09/13 03:23:42;;;;;;;1.40;1.10;;;17.80;45.30;;;;;;5007280;28;20251;-69
2022/09/13 03:26:16;;;;;;;1.40;1.20;;;17.70;46.10;;;;;;5004475;28;20464;-70
2022/09/13 03:29:09;;;;;;;1.40;1.20;;;17.60;46.20;;;;;;5010251;28;20435;-70
2022/09/13 03:32:16;;;;;;;1.50;1.30;;;17.50;46.80;;;;;;5006082;28;20439;-70
2022/09/13 03:35:09;;;;;;;1.40;1.10;;;17.50;47.60;;;;;;5011635;28;20527;-70
2022/09/13 03:37:52;;;;;;;1.40;1.20;;;17.50;46.60;;;;;;5003794;28;20435;-70
2022/09/13 03:40:53;;;;;;;1.40;1.20;;;17.60;46.10;;;;;;5010464;28;20459;-70
2022/09/13 03:43:23;;;;;;;1.40;1.20;;;17.60;46.50;;;;;;5011034;28;20450;-70
2022/09/13 03:45:56;;;;;;;1.40;1.20;;;17.60;46.70;;;;;;5010986;28;20436;-70
2022/09/13 03:48:22;;;;;;;1.37;1.13;;;17.20;47.20;;;;;;5010905;28;20441;-70
2022/09/13 03:50:49;;;;;;;1.40;1.20;;;16.60;51.20;;;;;;5007755;28;20464;-70
2022/09/13 03:53:21;;;;;;;1.40;1.20;;;16.90;49.90;;;;;;5010983;28;20444;-69
2022/09/13 03:55:47;;;;;;;1.47;1.33;;;16.90;49.50;;;;;;5010624;28;20439;-70
2022/09/13 03:58:15;;;;;;;1.40;1.10;;;17.10;49.20;;;;;;5010819;28;20432;-70
2022/09/13 04:00:40;;;;;;;1.40;1.20;;;17.40;47.40;;;;;;5007392;28;22407;-70
2022/09/13 04:03:07;;;;;;;1.40;1.20;;;17.50;47.10;;;;;;5010401;28;20433;-70
2022/09/13 04:05:33;;;;;;;1.37;1.17;;;17.60;46.30;;;;;;5007278;28;20185;-70
2022/09/13 04:08:00;;;;;;;1.40;1.20;;;15.30;44.80;;;;;;5007396;28;20547;-70
2022/09/13 04:10:26;;;;;;;1.30;1.10;;;17.60;46.50;;;;;;5009581;28;20562;-70
2022/09/13 04:12:53;;;;;;;1.50;1.30;;;17.50;46.80;;;;;;5009618;28;20443;-70
2022/09/13 04:15:20;;;;;;;1.40;1.23;;;17.40;47.10;;;;;;5013366;28;20431;-70
2022/09/13 04:17:46;;;;;;;1.40;1.17;;;17.40;47.10;;;;;;5014450;28;20439;-70
2022/09/13 04:20:12;;;;;;;1.30;1.20;;;17.20;47.30;;;;;;5013983;28;20547;-70
2022/09/13 04:22:38;;;;;;;1.40;1.20;;;16.70;49.20;;;;;;5014367;28;20507;-70
2022/09/13 04:25:04;;;;;;;1.30;1.10;;;16.80;50.20;;;;;;5013210;28;20815;-70
2022/09/13 04:27:30;;;;;;;1.30;1.10;;;16.90;49.00;;;;;;5014472;28;20209;-70
2022/09/13 04:29:55;;;;;;;1.30;1.10;;;17.10;48.10;;;;;;5014072;28;20566;-70
2022/09/13 04:32:21;;;;;;;1.40;1.20;;;17.30;46.60;;;;;;5013189;28;20208;-70
2022/09/13 04:34:47;;;;;;;1.40;1.20;;;17.50;46.20;;;;;;5014859;28;20212;-70
2022/09/13 04:37:12;;;;;;;1.40;1.17;;;17.60;45.50;;;;;;5012462;28;20189;-70
2022/09/13 04:39:38;;;;;;;1.40;1.10;;;17.50;46.70;;;;;;5013177;28;20201;-70
2022/09/13 04:42:06;;;;;;;1.40;1.13;;;17.40;46.30;;;;;;5011641;28;20185;-70
2022/09/13 04:44:32;;;;;;;1.40;1.20;;;17.40;46.70;;;;;;5010905;28;20177;-70
2022/09/13 04:46:59;;;;;;;1.40;1.20;;;17.50;46.80;;;;;;5008721;28;20974;-70
2022/09/13 04:49:24;;;;;;;1.37;1.10;;;17.30;46.90;;;;;;5010303;28;20462;-69
2022/09/13 04:51:50;;;;;;;1.30;1.10;;;17.30;47.80;;;;;;5008779;28;20428;-70
2022/09/13 04:54:16;;;;;;;1.50;1.30;;;17.30;48.20;;;;;;5007963;28;20668;-70
2022/09/13 04:56:42;;;;;;;1.40;1.20;;;17.40;47.60;;;;;;5011068;28;20192;-69
2022/09/13 04:59:09;;;;;;;1.40;1.17;;;17.40;47.30;;;;;;5011950;28;20491;-70
2022/09/13 05:01:36;;;;;;;1.40;1.20;;;17.60;46.60;;;;;;5007123;28;20439;-70
2022/09/13 05:04:02;;;;;;;1.40;1.10;;;17.70;46.60;;;;;;5007520;28;20462;-70
2022/09/13 05:06:29;;;;;;;1.40;1.10;;;17.60;47.30;;;;;;5012768;28;20460;-70
2022/09/13 05:08:55;;;;;;;1.37;1.13;;;17.70;47.30;;;;;;5011410;28;20447;-70
2022/09/13 05:11:26;;;;;;;1.30;1.10;;;17.60;47.30;;;;;;5011610;28;20814;-70
2022/09/13 05:13:54;;;;;;;1.40;1.20;;;17.60;47.40;;;;;;5009826;28;20875;-70
2022/09/13 05:16:21;;;;;;;1.40;1.20;;;17.70;47.60;;;;;;5008712;28;20431;-70
2022/09/13 05:18:46;;;;;;;1.40;1.30;;;17.80;47.00;;;;;;5010731;28;20439;-69
2022/09/13 05:21:12;;;;;;;1.30;1.10;;;17.70;46.50;;;;;;5008492;28;20444;-70
2022/09/13 05:23:37;;;;;;;1.40;1.20;;;17.70;47.20;;;;;;5007173;28;20267;-70
2022/09/13 05:26:05;;;;;;;1.30;1.17;;;17.70;47.60;;;;;;5008376;28;20186;-70
2022/09/13 05:28:33;;;;;;;1.40;1.20;;;17.60;47.60;;;;;;5028550;28;20205;-70
2022/09/13 05:31:02;;;;;;;1.40;1.20;;;17.70;47.70;;;;;;5013382;28;20522;-70
2022/09/13 05:33:29;;;;;;;1.30;1.10;;;17.60;47.60;;;;;;5007383;28;20424;-70
2022/09/13 05:35:55;;;;;;;1.37;1.20;;;17.70;47.70;;;;;;5010797;28;20571;-70
2022/09/13 05:38:22;;;;;;;1.40;1.20;;;17.50;47.40;;;;;;5010335;28;20981;-70
2022/09/13 05:40:53;;;;;;;1.30;1.20;;;17.60;47.70;;;;;;5009057;28;20821;-69
2022/09/13 05:43:19;;;;;;;1.30;1.10;;;17.60;46.30;;;;;;5009515;28;20833;-70
2022/09/13 05:45:44;;;;;;;1.30;1.13;;;17.40;48.20;;;;;;5009803;28;20481;-70
2022/09/13 05:48:10;;;;;;;1.40;1.30;;;17.60;47.60;;;;;;5011764;28;20582;-70
2022/09/13 05:50:37;;;;;;;1.30;1.20;;;17.80;46.00;;;;;;5012875;28;20228;-70
2022/09/13 05:53:03;;;;;;;1.30;1.20;;;17.70;45.90;;;;;;5010063;28;20233;-70
2022/09/13 05:55:29;;;;;;;1.30;1.10;;;17.20;47.20;;;;;;5012980;28;20434;-70
2022/09/13 05:57:55;;;;;;;1.33;1.20;;;17.10;49.10;;;;;;5013137;28;20412;-70
2022/09/13 06:00:21;;;;;;;1.30;1.10;;;17.60;49.30;;;;;;5013085;28;20454;-70
2022/09/13 06:02:46;;;;;;;1.30;1.10;;;18.00;47.60;;;;;;5009717;28;20935;-69
2022/09/13 06:05:12;;;;;;;1.30;1.10;;;18.10;48.00;;;;;;5010029;28;20209;-71
2022/09/13 06:07:41;;;;;;;1.30;1.10;;;18.20;46.90;;;;;;5008314;28;20216;-70
2022/09/13 06:10:08;;;;;;;1.30;1.10;;;18.00;46.80;;;;;;5012797;28;20244;-70
2022/09/13 06:12:33;;;;;;;1.33;1.20;;;18.40;46.60;;;;;;5008330;28;20872;-70
2022/09/13 06:14:59;;;;;;;1.30;1.20;;;18.40;46.50;;;;;;5008867;28;20523;-70
2022/09/13 06:17:25;;;;;;;1.30;1.10;;;18.50;45.70;;;;;;5010370;28;20188;-70
2022/09/13 06:19:50;;;;;;;1.40;1.30;;;18.70;44.70;;;;;;5012781;28;20202;-70
2022/09/13 06:22:16;;;;;;;1.30;1.10;;;18.80;45.20;;;;;;5012730;28;20183;-70
2022/09/13 06:24:42;;;;;;;1.30;1.20;;;18.80;44.40;;;;;;5011385;28;20188;-71
2022/09/13 06:27:09;;;;;;;1.30;1.20;;;18.80;45.10;;;;;;5012792;28;20696;-70
2022/09/13 06:29:35;;;;;;;1.40;1.20;;;18.80;45.00;;;;;;5012865;28;20196;-70
2022/09/13 06:32:01;;;;;;;1.37;1.20;;;18.80;43.20;;;;;;5010325;28;20436;-69
2022/09/13 06:34:27;;;;;;;1.30;1.10;;;18.00;45.00;;;;;;5012669;28;20591;-70
2022/09/13 06:36:53;;;;;;;1.30;1.20;;;18.30;47.30;;;;;;5011851;28;20526;-70
2022/09/13 06:39:18;;;;;;;1.30;1.10;;;18.20;45.00;;;;;;5011694;28;20723;-70
2022/09/13 06:41:44;;;;;;;1.30;1.13;;;18.10;46.70;;;;;;5010086;28;20185;-70
2022/09/13 06:44:10;;;;;;;1.40;1.30;;;18.60;45.60;;;;;;5005178;28;20181;-70
2022/09/13 06:46:35;;;;;;;1.30;1.10;;;18.90;45.40;;;;;;5012231;28;20463;-70
2022/09/13 06:49:04;;;;;;;1.30;1.10;;;19.00;44.90;;;;;;5003460;28;20200;-71
2022/09/13 06:51:31;;;;;;;1.30;1.10;;;19.20;45.30;;;;;;5007886;28;20246;-71
2022/09/13 06:53:57;;;;;;;1.30;1.20;;;19.40;44.10;;;;;;5004668;28;20521;-70
2022/09/13 06:56:24;;;;;;;1.30;1.10;;;19.50;43.90;;;;;;5011449;28;20444;-70
2022/09/13 06:58:53;;;;;;;1.33;1.20;;;19.70;42.40;;;;;;5012094;28;20447;-70
2022/09/13 07:01:22;;;;;;;1.33;1.27;;;19.80;41.90;;;;;;5011842;28;20463;-70
2022/09/13 07:03:51;;;;;;;1.30;1.20;;;19.70;40.90;;;;;;5006057;28;20456;-69
2022/09/13 07:06:19;;;;;;;1.40;1.23;;;19.50;40.90;;;;;;5008395;28;20556;-70
2022/09/13 07:08:46;;;;;;;1.30;1.20;;;19.30;41.90;;;;;;5004633;28;21010;-70
2022/09/13 07:11:13;;;;;;;1.40;1.30;;;19.70;42.90;;;;;;5005750;28;20864;-70
2022/09/13 07:13:40;;;;;;;1.30;1.20;;;19.90;42.60;;;;;;5010203;28;20804;-70
2022/09/13 07:16:09;;;;;;;1.30;1.13;;;20.00;40.10;;;;;;5007085;28;20845;-70
2022/09/13 07:18:35;;;;;;;1.30;1.10;;;19.90;39.50;;;;;;5009310;28;20444;-70
2022/09/13 07:21:09;;;;;;;1.40;1.30;;;19.90;39.40;;;;;;5008310;28;20480;-70
2022/09/13 07:23:36;;;;;;;1.30;1.20;;;20.30;40.20;;;;;;5010423;28;20400;-70
2022/09/13 07:26:04;;;;;;;1.40;1.20;;;20.20;38.60;;;;;;5009819;28;20456;-69
2022/09/13 07:28:36;;;;;;;1.30;1.10;;;19.80;39.70;;;;;;5009973;28;20436;-70
2022/09/13 07:31:19;;;;;;;1.30;1.17;;;19.60;40.90;;;;;;5015306;28;20483;-70
2022/09/13 07:33:45;;;;;;;1.30;1.20;;;19.50;42.00;;;;;;5005699;28;20398;-70
2022/09/13 07:36:12;;;;;;;1.30;1.20;;;19.70;41.40;;;;;;5011481;28;20422;-70
2022/09/13 07:38:40;;;;;;;1.40;1.20;;;19.70;40.90;;;;;;5008662;28;20980;-70
2022/09/13 07:41:19;;;;;;;1.30;1.20;;;19.70;41.40;;;;;;5004688;28;20451;-69
2022/09/13 07:43:45;;;;;;;1.40;1.30;;;19.90;41.70;;;;;;5004068;28;20947;-70
2022/09/13 07:46:16;;;;;;;1.40;1.20;;;20.40;40.80;;;;;;5004529;28;20470;-75
2022/09/13 07:48:44;;;;;;;1.30;1.20;;;20.90;38.90;;;;;;5001737;28;20694;-70
2022/09/13 07:51:14;;;;;;;1.30;1.10;;;21.00;37.10;;;;;;5009268;28;20417;-70
2022/09/13 07:53:41;;;;;;;1.40;1.30;;;21.00;37.30;;;;;;5028202;28;20819;-69
2022/09/13 07:56:12;;;;;;;1.40;1.30;;;21.10;37.50;;;;;;5010405;28;20795;-69
2022/09/13 07:58:39;;;;;;;1.30;1.10;;;21.10;36.40;;;;;;5009143;28;20401;-70
2022/09/13 08:01:10;;;;;;;1.30;1.17;;;21.10;37.60;;;;;;5015198;28;20895;-70
2022/09/13 08:03:36;;;;;;;1.60;1.33;;;21.20;37.30;;;;;;5012986;28;20791;-70
2022/09/13 08:06:03;;;;;;;1.30;1.20;;;21.10;37.10;;;;;;5009957;28;20489;-70
2022/09/13 08:08:29;;;;;;;1.30;1.20;;;20.80;37.50;;;;;;5028152;28;20440;-70
2022/09/13 08:10:55;;;;;;;1.40;1.30;;;20.70;38.80;;;;;;5010901;28;21181;-70
2022/09/13 08:13:22;;;;;;;1.30;1.10;;;21.40;37.60;;;;;;5012628;28;20411;-70
2022/09/13 08:15:48;;;;;;;1.30;1.20;;;21.90;36.60;;;;;;5013028;28;20436;-68
2022/09/13 08:18:15;;;;;;;1.40;1.30;;;22.20;36.10;;;;;;5010800;28;20444;-69
2022/09/13 08:20:40;;;;;;;1.30;1.30;;;22.40;35.40;;;;;;5011152;28;22001;-70
2022/09/13 08:23:08;;;;;;;1.30;1.20;;;22.50;35.60;;;;;;5005705;28;20521;-70
2022/09/13 08:25:35;;;;;;;1.30;1.20;;;22.50;35.60;;;;;;5026177;28;20286;-69
2022/09/13 08:28:22;;;;;;;1.30;1.20;;;22.60;35.40;;;;;;5014924;28;20630;-70
2022/09/13 08:30:48;;;;;;;1.30;1.17;;;22.70;36.30;;;;;;5014376;28;20420;-69
2022/09/13 08:33:14;;;;;;;1.80;1.30;;;22.60;35.10;;;;;;5014558;28;20405;-69
2022/09/13 08:35:40;;;;;;;1.30;1.10;;;22.60;35.40;;;;;;5013949;28;20485;-70
2022/09/13 08:38:06;;;;;;;1.30;1.17;;;22.80;35.90;;;;;;5014457;28;20254;-70
2022/09/13 08:40:40;;;;;;;1.30;1.20;;;23.00;34.60;;;;;;5014790;28;20542;-70
2022/09/13 08:43:17;;;;;;;1.30;1.20;;;22.80;35.60;;;;;;5014010;28;20929;-69
2022/09/13 08:46:09;;;;;;;1.30;1.13;;;22.70;35.40;;;;;;5013842;28;20426;-70
2022/09/13 08:48:40;;;;;;;1.30;1.20;;;22.60;35.10;;;;;;5014073;28;20806;-70
2022/09/13 08:51:15;;;;;;;1.30;1.20;;;22.60;36.00;;;;;;5014237;28;20399;-70
2022/09/13 08:53:47;;;;;;;1.30;1.20;;;22.70;35.80;;;;;;5013997;28;20493;-69
2022/09/13 08:56:37;;;;;;;1.33;1.30;;;22.60;35.70;;;;;;5013703;28;20424;-70
2022/09/13 08:59:21;;;;;;;1.30;1.10;;;22.90;35.30;;;;;;5014381;28;20428;-70
2022/09/13 09:02:05;;;;;;;1.30;1.10;;;22.80;34.70;;;;;;5013012;28;20724;-69
2022/09/13 09:04:44;;;;;;;1.30;1.20;;;23.10;34.10;;;;;;5014254;28;20600;-70
2022/09/13 09:07:22;;;;;;;1.30;1.20;;;23.00;36.10;;;;;;5013083;28;20511;-70
2022/09/13 09:10:16;;;;;;;1.30;1.20;;;23.10;36.90;;;;;;4994023;28;20479;-70
2022/09/13 09:12:56;;;;;;;1.30;1.30;;;23.30;37.00;;;;;;4993896;28;20435;-69
2022/09/13 09:15:25;;;;;;;1.30;1.07;;;23.30;36.70;;;;;;4992964;28;20423;-70
2022/09/13 09:17:59;;;;;;;1.30;1.10;;;23.10;36.70;;;;;;4994194;28;20422;-69
2022/09/13 09:20:39;;;;;;;1.30;1.17;;;23.10;35.90;;;;;;5009150;28;20450;-70
2022/09/13 09:23:13;;;;;;;1.30;1.20;;;23.50;35.40;;;;;;4993790;28;20775;-70
2022/09/13 09:25:39;;;;;;;1.30;1.13;;;23.70;34.70;;;;;;4993003;28;20434;-70
2022/09/13 09:28:16;;;;;;;1.30;1.20;;;24.10;34.10;;;;;;4992925;28;20867;-70
2022/09/13 09:30:55;;;;;;;1.30;1.20;;;25.10;32.00;;;;;;4994114;28;20196;-70
2022/09/13 09:33:33;;;;;;;1.30;1.27;;;25.30;30.60;;;;;;4993988;28;20877;-70
2022/09/13 09:36:21;;;;;;;1.30;1.10;;;25.30;30.40;;;;;;4994102;28;20510;-70
2022/09/13 09:38:47;;;;;;;1.30;1.10;;;25.60;29.90;;;;;;4988622;28;20425;-70
2022/09/13 09:41:27;;;;;;;1.30;1.10;;;26.10;30.10;;;;;;4994030;28;20416;-70
2022/09/13 09:44:19;;;;;;;1.30;1.20;;;26.60;29.10;;;;;;4994256;28;20425;-70
2022/09/13 09:47:10;;;;;;;1.30;1.20;;;26.70;28.40;;;;;;4993861;28;20457;-70
2022/09/13 09:50:10;;;;;;;1.30;1.20;;;26.20;28.50;;;;;;4993888;28;20800;-70
2022/09/13 09:52:39;;;;;;;1.30;1.20;;;26.40;27.60;;;;;;4995940;28;21011;-69
2022/09/13 09:55:22;;;;;;;1.30;1.27;;;25.60;27.20;;;;;;5012986;28;20482;-70
2022/09/13 09:57:56;;;;;;;1.30;1.10;;;25.60;28.00;;;;;;5013354;28;20407;-70
2022/09/13 10:00:24;;;;;;;1.30;1.17;;;25.90;26.80;;;;;;5013366;28;20424;-70
2022/09/13 10:02:58;;;;;;;1.30;1.20;;;26.60;27.10;;;;;;5012485;28;20404;-70
2022/09/13 10:05:26;;;;;;;1.30;1.20;;;26.90;26.70;;;;;;5011302;28;20435;-70
2022/09/13 10:08:05;;;;;;;1.30;1.17;;;26.50;25.90;;;;;;5013162;28;20551;-70
2022/09/13 10:10:44;;;;;;;1.30;1.20;;;26.10;26.60;;;;;;5013000;28;21047;-70
2022/09/13 10:13:20;;;;;;;1.30;1.20;;;25.90;27.60;;;;;;5012177;28;20404;-70
2022/09/13 10:15:57;;;;;;;1.30;1.20;;;25.60;26.70;;;;;;5012801;28;20423;-71
2022/09/13 10:18:24;;;;;;;1.30;1.23;;;25.80;26.90;;;;;;5012959;28;20906;-70
2022/09/13 10:21:16;;;;;;;1.30;1.10;;;26.10;25.90;;;;;;5011401;28;20522;-70
2022/09/13 10:23:43;;;;;;;1.30;1.17;;;26.20;24.90;;;;;;4992888;28;20916;-70
2022/09/13 10:26:16;;;;;;;1.30;1.20;;;26.10;25.90;;;;;;4993012;28;20412;-70
2022/09/13 10:28:51;;;;;;;1.30;1.00;;;26.20;23.70;;;;;;4992777;28;20879;-70
2022/09/13 10:31:19;;;;;;;1.30;1.30;;;26.30;22.60;;;;;;4994072;28;20412;-70
2022/09/13 10:34:00;;;;;;;1.30;1.20;;;26.30;22.50;;;;;;5012000;28;20432;-70
2022/09/13 10:36:32;;;;;;;1.30;1.17;;;26.60;23.10;;;;;;5012699;28;20922;-70
2022/09/13 10:39:01;;;;;;;1.30;1.00;;;27.20;22.30;;;;;;5012204;28;20408;-70
2022/09/13 10:41:30;;;;;;;1.30;1.20;;;28.00;23.30;;;;;;5012301;28;20419;-71
2022/09/13 10:43:57;;;;;;;1.30;1.10;;;28.20;20.50;;;;;;5011292;28;20463;-70
2022/09/13 10:46:24;;;;;;;1.30;1.20;;;28.30;22.60;;;;;;5012536;28;20971;-70
2022/09/13 10:48:56;;;;;;;1.30;1.20;;;28.80;20.40;;;;;;5011949;28;20408;-70
2022/09/13 10:51:36;;;;;;;1.30;1.10;;;28.20;21.50;;;;;;5012059;28;20396;-70
2022/09/13 10:54:16;;;;;;;1.30;1.10;;;28.30;20.30;;;;;;5011008;28;20430;-70
2022/09/13 10:56:42;;;;;;;1.30;1.00;;;28.30;21.30;;;;;;4993075;28;20474;-70
2022/09/13 10:59:30;;;;;;;1.30;1.10;;;29.30;21.20;;;;;;4992472;28;20486;-70
2022/09/13 11:02:24;;;;;;;1.30;1.10;;;30.00;19.20;;;;;;4991902;28;20416;-70
2022/09/13 11:04:49;;;;;;;1.30;1.03;;;29.50;18.90;;;;;;5005782;28;20416;-71
2022/09/13 11:07:49;;;;;;;1.30;1.00;;;29.80;19.30;;;;;;5006152;28;20460;-71
2022/09/13 11:10:33;;;;;;;1.30;1.00;;;30.70;20.10;;;;;;5011416;28;20680;-71
2022/09/13 11:13:13;;;;;;;1.30;1.00;;;31.00;18.80;;;;;;5002763;28;20590;-71
2022/09/13 11:16:16;;;;;;;1.30;1.00;;;31.40;19.30;;;;;;5004495;28;20501;-70
2022/09/13 11:19:25;;;;;;;1.30;1.00;;;29.90;18.20;;;;;;5004899;28;20439;-70
2022/09/13 11:22:21;;;;;;;1.30;0.90;;;30.30;19.50;;;;;;5008019;28;20428;-71
2022/09/13 11:25:14;;;;;;;1.30;1.00;;;31.20;17.90;;;;;;5004986;28;20547;-71
2022/09/13 11:27:42;;;;;;;1.30;1.00;;;30.90;17.70;;;;;;5007201;28;20826;-70
2022/09/13 11:30:14;;;;;;;1.30;1.10;;;30.00;18.90;;;;;;5011539;28;20486;-71
2022/09/13 11:32:46;;;;;;;1.30;1.00;;;30.20;19.80;;;;;;5011281;28;20923;-71
2022/09/13 11:35:51;;;;;;;1.30;1.00;;;30.60;21.20;;;;;;5010470;28;20424;-70
2022/09/13 11:38:22;;;;;;;1.30;1.10;;;31.40;19.30;;;;;;5009942;28;20442;-71
2022/09/13 11:40:50;;;;;;;1.20;0.90;;;32.40;17.60;;;;;;5010546;28;20458;-71
2022/09/13 11:43:38;;;;;;;1.27;1.00;;;33.80;18.30;;;;;;5010164;28;20485;-71
2022/09/13 11:46:21;;;;;;;1.20;0.90;;;34.70;14.00;;;;;;5006362;28;20435;-71
2022/09/13 11:49:00;;;;;;;1.20;0.90;;;35.10;12.90;;;;;;5019636;28;20538;-71
2022/09/13 11:51:49;;;;;;;1.20;0.90;;;35.90;14.70;;;;;;5008222;28;20427;-71
2022/09/13 11:54:20;;;;;;;1.20;0.90;;;36.30;14.20;;;;;;5002189;28;20487;-72
2022/09/13 11:56:51;;;;;;;1.20;0.90;;;36.20;14.50;;;;;;5010824;28;20515;-71
2022/09/13 11:59:46;;;;;;;1.20;0.90;;;36.10;15.00;;;;;;5002223;28;20463;-70
2022/09/13 12:02:28;;;;;;;1.20;1.00;;;35.80;13.00;;;;;;5006790;28;20439;-72
2022/09/13 12:05:04;;;;;;;1.20;0.90;;;36.30;12.90;;;;;;5010453;28;20439;-71
2022/09/13 12:07:36;;;;;;;1.20;0.90;;;36.30;14.90;;;;;;5009585;28;20462;-71
2022/09/13 12:10:12;;;;;;;1.40;1.07;;;36.90;14.60;;;;;;5004748;28;20867;-72
2022/09/13 12:12:39;;;;;;;1.20;0.80;;;37.30;11.80;;;;;;5006947;28;20430;-71
2022/09/13 12:15:38;;;;;;;1.20;0.90;;;37.40;10.60;;;;;;5008913;28;20427;-71
2022/09/13 12:18:13;;;;;;;1.20;0.90;;;35.90;9.70;;;;;;4951090;28;20442;-71
2022/09/13 12:20:52;;;;;;;1.20;0.90;;;35.20;10.00;;;;;;4970057;28;20943;-71
2022/09/13 12:23:32;;;;;;;1.20;0.90;;;33.60;12.20;;;;;;4967939;28;20446;-71
2022/09/13 12:26:08;;;;;;;1.20;0.90;;;33.70;12.80;;;;;;4964108;28;20440;-71
2022/09/13 12:28:34;;;;;;;1.20;0.87;;;32.50;13.70;;;;;;4966634;28;20520;-70
2022/09/13 12:31:23;;;;;;;1.20;0.90;;;32.70;15.00;;;;;;4968895;28;21043;-71
2022/09/13 12:33:49;;;;;;;1.20;1.00;;;32.10;16.80;;;;;;4955956;28;20185;-71
2022/09/13 12:36:20;;;;;;;1.20;0.97;;;32.50;17.00;;;;;;4971701;28;20422;-70
2022/09/13 12:39:04;;;;;;;1.27;0.90;;;32.70;18.30;;;;;;4969327;28;20516;-69
2022/09/13 12:41:54;;;;;;;1.30;1.00;;;32.30;15.70;;;;;;4967901;28;20433;-71
2022/09/13 12:44:34;;;;;;;1.30;1.00;;;32.40;18.70;;;;;;4969051;28;20512;-71
2022/09/13 12:47:28;;;;;;;1.30;1.00;;;32.00;16.50;;;;;;4971559;28;20476;-71
2022/09/13 12:50:08;;;;;;;1.30;1.10;;;32.20;15.70;;;;;;4968551;28;20457;-74
2022/09/13 12:52:49;;;;;;;1.30;1.00;;;32.10;17.30;;;;;;4970973;28;20440;-69
2022/09/13 12:55:41;;;;;;;1.30;1.00;;;31.90;17.60;;;;;;5001703;28;20954;-70
2022/09/13 12:58:44;;;;;;;1.30;1.10;;;32.00;16.60;;;;;;5013455;28;20440;-71
2022/09/13 13:01:23;;;;;;;1.30;1.00;;;31.70;16.60;;;;;;5012525;28;20957;-71
2022/09/13 13:03:49;;;;;;;1.30;1.10;;;31.70;17.40;;;;;;5013062;28;20507;-70
2022/09/13 13:06:24;;;;;;;1.30;1.10;;;31.80;18.20;;;;;;5014269;28;21018;-72
2022/09/13 13:08:53;;;;;;;1.30;1.00;;;31.80;19.00;;;;;;5013920;28;20200;-71
2022/09/13 13:11:23;;;;;;;1.30;1.10;;;31.90;16.20;;;;;;5014312;28;20427;-70
2022/09/13 13:14:08;;;;;;;1.30;1.00;;;32.10;16.10;;;;;;5010313;28;20474;-71
2022/09/13 13:16:39;;;;;;;1.30;1.03;;;32.20;15.00;;;;;;5009999;28;20420;-70
2022/09/13 13:19:28;;;;;;;1.30;1.00;;;32.20;17.40;;;;;;4998444;28;21376;-71